sensor_id;sensor_type;location;lat;lon;timestamp;pressure;altitude;pressure_sealevel;temperature;humidity
28000;BME280;15328;50.860;10.562;2022-11-20T00:02:12;95988.97;;;-3.47;58.45
28000;BME280;15328;50.860;10.562;2022-11-20T00:07:15;95976.81;;;-3.56;58.21
28000;BME280;15328;50.860;10.562;2022-11-20T00:12:16;95974.53;;;-3.68;58.00
28000;BME280;15328;50.860;10.562;2022-11-20T00:17:19;95975.63;;;-3.71;59.50
28000;BME280;15328;50.860;10.562;2022-11-20T00:22:43;95968.50;;;-3.69;59.35
28000;BME280;15328;50.860;10.562;2022-11-20T00:27:55;95958.91;;;-3.68;59.22
28000;BME280;15328;50.860;10.562;2022-11-20T00:32:56;95949.88;;;-3.64;60.16
28000;BME280;15328;50.860;10.562;2022-11-20T00:38:03;95949.72;;;-3.53;61.86
28000;BME280;15328;50.860;10.562;2022-11-20T00:48:42;95939.47;;;-3.27;62.32
28000;BME280;15328;50.860;10.562;2022-11-20T00:53:43;95938.50;;;-3.26;61.10
28000;BME280;15328;50.860;10.562;2022-11-20T00:58:45;95941.78;;;-3.24;60.30
28000;BME280;15328;50.860;10.562;2022-11-20T01:03:48;95936.59;;;-3.34;59.83
28000;BME280;15328;50.860;10.562;2022-11-20T01:08:51;95934.16;;;-3.35;60.09
28000;BME280;15328;50.860;10.562;2022-11-20T01:13:53;95933.63;;;-3.39;59.69
28000;BME280;15328;50.860;10.562;2022-11-20T01:18:57;95937.63;;;-3.45;59.42
28000;BME280;15328;50.860;10.562;2022-11-20T01:23:58;95940.47;;;-3.38;59.67
28000;BME280;15328;50.860;10.562;2022-11-20T01:29:00;95940.16;;;-3.35;60.07
28000;BME280;15328;50.860;10.562;2022-11-20T01:34:03;95928.19;;;-3.46;60.07
28000;BME280;15328;50.860;10.562;2022-11-20T01:39:06;95931.59;;;-3.45;60.18
28000;BME280;15328;50.860;10.562;2022-11-20T01:44:10;95928.63;;;-3.50;60.54
28000;BME280;15328;50.860;10.562;2022-11-20T01:49:19;95931.50;;;-3.53;60.02
28000;BME280;15328;50.860;10.562;2022-11-20T01:54:25;95924.09;;;-3.48;59.25
28000;BME280;15328;50.860;10.562;2022-11-20T01:59:27;95920.16;;;-3.52;58.95
28000;BME280;15328;50.860;10.562;2022-11-20T02:04:29;95913.16;;;-3.52;59.17
28000;BME280;15328;50.860;10.562;2022-11-20T02:09:29;95907.69;;;-3.58;59.15
28000;BME280;15328;50.860;10.562;2022-11-20T02:14:29;95896.38;;;-3.67;59.38
28000;BME280;15328;50.860;10.562;2022-11-20T02:19:31;95884.81;;;-3.82;60.51
28000;BME280;15328;50.860;10.562;2022-11-20T02:24:31;95889.88;;;-3.81;60.58
28000;BME280;15328;50.860;10.562;2022-11-20T02:34:44;95903.78;;;-3.72;59.75
28000;BME280;15328;50.860;10.562;2022-11-20T02:39:46;95897.91;;;-3.74;60.24
28000;BME280;15328;50.860;10.562;2022-11-20T02:44:47;95893.41;;;-3.72;59.46
28000;BME280;15328;50.860;10.562;2022-11-20T02:49:47;95888.47;;;-3.75;60.84
28000;BME280;15328;50.860;10.562;2022-11-20T02:54:48;95887.66;;;-3.76;60.94
28000;BME280;15328;50.860;10.562;2022-11-20T02:59:48;95881.94;;;-3.79;60.64
28000;BME280;15328;50.860;10.562;2022-11-20T03:04:48;95880.69;;;-3.75;60.76
28000;BME280;15328;50.860;10.562;2022-11-20T03:09:49;95878.84;;;-3.65;60.80
28000;BME280;15328;50.860;10.562;2022-11-20T03:14:49;95874.97;;;-3.51;59.94
28000;BME280;15328;50.860;10.562;2022-11-20T03:19:49;95861.84;;;-3.59;60.64
28000;BME280;15328;50.860;10.562;2022-11-20T03:24:50;95856.34;;;-3.56;60.43
28000;BME280;15328;50.860;10.562;2022-11-20T03:29:51;95863.47;;;-3.58;60.47
28000;BME280;15328;50.860;10.562;2022-11-20T03:34:51;95860.88;;;-3.58;60.99
28000;BME280;15328;50.860;10.562;2022-11-20T03:39:51;95863.00;;;-3.44;61.79
28000;BME280;15328;50.860;10.562;2022-11-20T03:44:52;95854.78;;;-3.39;61.15
28000;BME280;15328;50.860;10.562;2022-11-20T03:49:52;95855.00;;;-3.33;61.38
28000;BME280;15328;50.860;10.562;2022-11-20T03:54:52;95844.75;;;-3.34;61.52
28000;BME280;15328;50.860;10.562;2022-11-20T03:59:53;95849.75;;;-3.23;60.99
28000;BME280;15328;50.860;10.562;2022-11-20T04:04:53;95847.00;;;-3.22;61.36
28000;BME280;15328;50.860;10.562;2022-11-20T04:09:53;95867.81;;;-3.22;61.45
28000;BME280;15328;50.860;10.562;2022-11-20T04:14:54;95859.63;;;-3.09;62.41
28000;BME280;15328;50.860;10.562;2022-11-20T04:19:54;95844.25;;;-2.85;63.18
28000;BME280;15328;50.860;10.562;2022-11-20T04:24:54;95849.09;;;-2.72;63.58
28000;BME280;15328;50.860;10.562;2022-11-20T04:29:55;95840.22;;;-2.61;63.34
28000;BME280;15328;50.860;10.562;2022-11-20T04:34:55;95841.34;;;-2.46;64.05
28000;BME280;15328;50.860;10.562;2022-11-20T04:39:55;95841.19;;;-2.19;65.42
28000;BME280;15328;50.860;10.562;2022-11-20T04:44:56;95845.47;;;-2.09;63.20
28000;BME280;15328;50.860;10.562;2022-11-20T04:49:57;95827.53;;;-2.12;63.62
28000;BME280;15328;50.860;10.562;2022-11-20T04:54:57;95843.88;;;-2.02;62.71
28000;BME280;15328;50.860;10.562;2022-11-20T04:59:57;95839.13;;;-2.07;62.80
28000;BME280;15328;50.860;10.562;2022-11-20T05:04:58;95835.88;;;-2.09;61.42
28000;BME280;15328;50.860;10.562;2022-11-20T05:09:58;95839.03;;;-2.23;61.23
28000;BME280;15328;50.860;10.562;2022-11-20T05:14:58;95842.19;;;-2.37;61.43
28000;BME280;15328;50.860;10.562;2022-11-20T05:19:59;95852.03;;;-2.49;60.93
28000;BME280;15328;50.860;10.562;2022-11-20T05:24:59;95842.44;;;-2.49;60.92
28000;BME280;15328;50.860;10.562;2022-11-20T05:29:59;95840.06;;;-2.42;61.72
28000;BME280;15328;50.860;10.562;2022-11-20T05:35:00;95840.94;;;-2.51;61.93
28000;BME280;15328;50.860;10.562;2022-11-20T05:40:00;95844.06;;;-2.47;62.32
28000;BME280;15328;50.860;10.562;2022-11-20T05:45:02;95855.06;;;-2.36;62.33
28000;BME280;15328;50.860;10.562;2022-11-20T05:50:03;95852.31;;;-2.34;62.73
28000;BME280;15328;50.860;10.562;2022-11-20T05:55:04;95844.00;;;-2.12;62.23
28000;BME280;15328;50.860;10.562;2022-11-20T06:00:04;95844.03;;;-2.04;62.36
28000;BME280;15328;50.860;10.562;2022-11-20T06:05:05;95836.56;;;-1.99;62.48
28000;BME280;15328;50.860;10.562;2022-11-20T06:10:06;95836.63;;;-1.91;61.80
28000;BME280;15328;50.860;10.562;2022-11-20T06:15:07;95834.03;;;-1.91;61.62
28000;BME280;15328;50.860;10.562;2022-11-20T06:20:08;95828.69;;;-1.81;61.93
28000;BME280;15328;50.860;10.562;2022-11-20T06:25:08;95819.69;;;-1.87;61.14
28000;BME280;15328;50.860;10.562;2022-11-20T06:30:10;95838.47;;;-2.09;61.69
28000;BME280;15328;50.860;10.562;2022-11-20T06:35:11;95835.91;;;-2.01;62.24
28000;BME280;15328;50.860;10.562;2022-11-20T06:40:11;95845.19;;;-1.98;62.11
28000;BME280;15328;50.860;10.562;2022-11-20T06:45:12;95834.22;;;-1.84;62.13
28000;BME280;15328;50.860;10.562;2022-11-20T06:50:13;95828.56;;;-1.71;62.89
28000;BME280;15328;50.860;10.562;2022-11-20T06:55:13;95847.16;;;-1.66;62.44
28000;BME280;15328;50.860;10.562;2022-11-20T07:00:17;95853.72;;;-1.62;62.93
28000;BME280;15328;50.860;10.562;2022-11-20T07:05:20;95838.88;;;-1.62;63.71
28000;BME280;15328;50.860;10.562;2022-11-20T07:10:21;95838.09;;;-1.54;63.47
28000;BME280;15328;50.860;10.562;2022-11-20T07:15:23;95827.41;;;-1.35;63.77
28000;BME280;15328;50.860;10.562;2022-11-20T07:20:23;95829.34;;;-1.37;62.77
28000;BME280;15328;50.860;10.562;2022-11-20T07:25:27;95830.34;;;-1.21;63.45
28000;BME280;15328;50.860;10.562;2022-11-20T07:30:29;95828.94;;;-1.08;64.15
28000;BME280;15328;50.860;10.562;2022-11-20T07:35:39;95818.16;;;-1.05;64.60
28000;BME280;15328;50.860;10.562;2022-11-20T07:40:43;95827.63;;;-0.87;63.29
28000;BME280;15328;50.860;10.562;2022-11-20T07:46:03;95823.59;;;-0.82;64.51
28000;BME280;15328;50.860;10.562;2022-11-20T07:56:48;95819.81;;;-0.63;63.91
28000;BME280;15328;50.860;10.562;2022-11-20T08:02:05;95815.09;;;-0.51;63.86
28000;BME280;15328;50.860;10.562;2022-11-20T08:07:05;95812.13;;;-0.40;64.66
28000;BME280;15328;50.860;10.562;2022-11-20T08:12:06;95814.09;;;-0.34;64.50
28000;BME280;15328;50.860;10.562;2022-11-20T08:17:25;95826.81;;;-0.15;64.20
28000;BME280;15328;50.860;10.562;2022-11-20T08:22:25;95837.91;;;0.04;64.38
28000;BME280;15328;50.860;10.562;2022-11-20T08:27:26;95834.78;;;0.08;64.65
28000;BME280;15328;50.860;10.562;2022-11-20T08:32:26;95843.59;;;0.07;65.43
28000;BME280;15328;50.860;10.562;2022-11-20T08:37:27;95839.00;;;0.17;66.02
28000;BME280;15328;50.860;10.562;2022-11-20T08:42:31;95831.78;;;0.27;66.04
28000;BME280;15328;50.860;10.562;2022-11-20T08:47:31;95842.88;;;0.38;65.54
28000;BME280;15328;50.860;10.562;2022-11-20T08:52:32;95846.94;;;0.40;65.57
28000;BME280;15328;50.860;10.562;2022-11-20T08:57:44;95841.59;;;0.25;65.83
28000;BME280;15328;50.860;10.562;2022-11-20T09:02:45;95831.88;;;0.42;65.76
28000;BME280;15328;50.860;10.562;2022-11-20T09:07:45;95827.53;;;0.66;65.45
28000;BME280;15328;50.860;10.562;2022-11-20T09:12:48;95826.63;;;0.81;65.11
28000;BME280;15328;50.860;10.562;2022-11-20T09:17:59;95831.44;;;1.01;65.58
28000;BME280;15328;50.860;10.562;2022-11-20T09:23:00;95822.84;;;1.15;64.77
28000;BME280;15328;50.860;10.562;2022-11-20T09:28:00;95823.72;;;1.30;64.53
28000;BME280;15328;50.860;10.562;2022-11-20T09:33:01;95829.19;;;1.43;64.23
28000;BME280;15328;50.860;10.562;2022-11-20T09:38:07;95827.06;;;1.62;63.54
28000;BME280;15328;50.860;10.562;2022-11-20T09:44:01;95832.09;;;1.48;62.57
28000;BME280;15328;50.860;10.562;2022-11-20T09:59:35;95827.94;;;1.54;63.24
28000;BME280;15328;50.860;10.562;2022-11-20T10:04:43;95825.63;;;1.59;63.53
28000;BME280;15328;50.860;10.562;2022-11-20T10:09:51;95817.91;;;1.80;63.90
28000;BME280;15328;50.860;10.562;2022-11-20T10:15:17;95820.06;;;1.92;63.56
28000;BME280;15328;50.860;10.562;2022-11-20T10:20:54;95811.31;;;1.99;63.01
28000;BME280;15328;50.860;10.562;2022-11-20T10:31:27;95808.88;;;2.12;62.84
28000;BME280;15328;50.860;10.562;2022-11-20T10:37:23;95813.13;;;2.13;64.52
28000;BME280;15328;50.860;10.562;2022-11-20T10:48:33;95804.91;;;2.31;63.85
28000;BME280;15328;50.860;10.562;2022-11-20T11:04:28;95806.16;;;2.35;63.81
28000;BME280;15328;50.860;10.562;2022-11-20T11:09:35;95795.03;;;2.48;63.78
28000;BME280;15328;50.860;10.562;2022-11-20T11:14:48;95794.88;;;2.50;62.70
28000;BME280;15328;50.860;10.562;2022-11-20T11:25:31;95779.88;;;2.65;62.66
28000;BME280;15328;50.860;10.562;2022-11-20T11:30:43;95780.50;;;2.67;62.61
28000;BME280;15328;50.860;10.562;2022-11-20T11:36:20;95771.19;;;2.64;63.02
28000;BME280;15328;50.860;10.562;2022-11-20T11:41:52;95783.31;;;2.65;63.36
28000;BME280;15328;50.860;10.562;2022-11-20T11:47:24;95790.38;;;2.65;63.57
28000;BME280;15328;50.860;10.562;2022-11-20T11:52:25;95786.50;;;2.61;63.54
28000;BME280;15328;50.860;10.562;2022-11-20T11:57:51;95765.31;;;2.62;64.18
28000;BME280;15328;50.860;10.562;2022-11-20T12:03:36;95761.94;;;2.68;63.35
28000;BME280;15328;50.860;10.562;2022-11-20T12:14:46;95762.28;;;2.80;63.51
28000;BME280;15328;50.860;10.562;2022-11-20T12:19:48;95766.91;;;2.78;64.20
28000;BME280;15328;50.860;10.562;2022-11-20T12:30:10;95763.97;;;2.52;63.07
28000;BME280;15328;50.860;10.562;2022-11-20T12:35:30;95760.78;;;2.56;63.90
28000;BME280;15328;50.860;10.562;2022-11-20T12:46:27;95748.78;;;2.32;62.72
28000;BME280;15328;50.860;10.562;2022-11-20T13:07:26;95754.09;;;2.54;61.66
28000;BME280;15328;50.860;10.562;2022-11-20T13:12:35;95760.06;;;2.62;62.02
28000;BME280;15328;50.860;10.562;2022-11-20T13:18:08;95764.97;;;2.51;61.44
28000;BME280;15328;50.860;10.562;2022-11-20T13:23:30;95765.78;;;2.51;61.23
28000;BME280;15328;50.860;10.562;2022-11-20T13:34:29;95758.28;;;2.48;60.60
28000;BME280;15328;50.860;10.562;2022-11-20T13:39:33;95760.88;;;2.63;60.83
28000;BME280;15328;50.860;10.562;2022-11-20T13:44:42;95757.53;;;2.54;60.81
28000;BME280;15328;50.860;10.562;2022-11-20T13:49:42;95772.56;;;2.45;59.81
28000;BME280;15328;50.860;10.562;2022-11-20T14:00:09;95748.69;;;2.40;58.84
28000;BME280;15328;50.860;10.562;2022-11-20T14:05:22;95753.53;;;2.22;57.82
28000;BME280;15328;50.860;10.562;2022-11-20T14:10:27;95756.97;;;2.23;58.57
28000;BME280;15328;50.860;10.562;2022-11-20T14:15:33;95766.28;;;2.25;58.96
28000;BME280;15328;50.860;10.562;2022-11-20T14:20:34;95762.66;;;2.11;59.40
28000;BME280;15328;50.860;10.562;2022-11-20T14:25:34;95762.47;;;1.98;59.03
28000;BME280;15328;50.860;10.562;2022-11-20T14:30:45;95762.34;;;1.92;59.22
28000;BME280;15328;50.860;10.562;2022-11-20T14:35:51;95762.72;;;1.89;58.91
28000;BME280;15328;50.860;10.562;2022-11-20T14:40:52;95749.78;;;1.87;59.55
28000;BME280;15328;50.860;10.562;2022-11-20T14:46:05;95741.47;;;1.69;58.84
28000;BME280;15328;50.860;10.562;2022-11-20T14:51:10;95742.66;;;1.66;59.18
28000;BME280;15328;50.860;10.562;2022-11-20T14:56:10;95733.16;;;1.65;59.60
28000;BME280;15328;50.860;10.562;2022-11-20T15:01:12;95714.59;;;1.52;59.82
28000;BME280;15328;50.860;10.562;2022-11-20T15:06:13;95723.91;;;1.40;60.78
28000;BME280;15328;50.860;10.562;2022-11-20T15:11:27;95713.41;;;1.40;59.54
28000;BME280;15328;50.860;10.562;2022-11-20T15:16:28;95703.56;;;1.42;59.58
28000;BME280;15328;50.860;10.562;2022-11-20T15:21:28;95690.88;;;1.31;60.30
28000;BME280;15328;50.860;10.562;2022-11-20T15:26:29;95697.28;;;1.28;59.80
28000;BME280;15328;50.860;10.562;2022-11-20T15:31:30;95709.19;;;1.16;60.34
28000;BME280;15328;50.860;10.562;2022-11-20T15:36:30;95697.19;;;1.21;60.88
28000;BME280;15328;50.860;10.562;2022-11-20T15:41:30;95682.81;;;1.32;61.23
28000;BME280;15328;50.860;10.562;2022-11-20T15:46:33;95677.41;;;1.34;60.36
28000;BME280;15328;50.860;10.562;2022-11-20T15:51:41;95687.53;;;1.22;60.77
28000;BME280;15328;50.860;10.562;2022-11-20T15:56:41;95673.25;;;1.24;60.44
28000;BME280;15328;50.860;10.562;2022-11-20T16:01:42;95668.63;;;1.27;60.69
28000;BME280;15328;50.860;10.562;2022-11-20T16:06:43;95673.50;;;1.15;62.28
28000;BME280;15328;50.860;10.562;2022-11-20T16:11:43;95670.06;;;1.14;61.98
28000;BME280;15328;50.860;10.562;2022-11-20T16:16:43;95671.53;;;1.32;62.24
28000;BME280;15328;50.860;10.562;2022-11-20T16:21:45;95656.97;;;1.29;60.94
28000;BME280;15328;50.860;10.562;2022-11-20T16:26:45;95641.34;;;1.36;61.99
28000;BME280;15328;50.860;10.562;2022-11-20T16:31:45;95652.56;;;1.30;61.95
28000;BME280;15328;50.860;10.562;2022-11-20T16:36:46;95637.47;;;1.32;62.10
28000;BME280;15328;50.860;10.562;2022-11-20T16:41:47;95631.84;;;1.35;62.36
28000;BME280;15328;50.860;10.562;2022-11-20T16:46:47;95624.84;;;1.50;62.86
28000;BME280;15328;50.860;10.562;2022-11-20T16:51:47;95631.84;;;1.35;63.65
28000;BME280;15328;50.860;10.562;2022-11-20T16:56:48;95621.84;;;1.38;63.36
28000;BME280;15328;50.860;10.562;2022-11-20T17:01:50;95611.88;;;1.34;63.90
28000;BME280;15328;50.860;10.562;2022-11-20T17:06:50;95608.81;;;1.30;63.52
28000;BME280;15328;50.860;10.562;2022-11-20T17:11:50;95610.19;;;1.41;63.19
28000;BME280;15328;50.860;10.562;2022-11-20T17:16:51;95611.72;;;1.20;63.44
28000;BME280;15328;50.860;10.562;2022-11-20T17:21:51;95605.75;;;1.27;64.34
28000;BME280;15328;50.860;10.562;2022-11-20T17:26:52;95595.56;;;1.46;63.97
28000;BME280;15328;50.860;10.562;2022-11-20T17:31:52;95581.09;;;1.65;63.23
28000;BME280;15328;50.860;10.562;2022-11-20T17:36:53;95578.72;;;1.70;64.27
28000;BME280;15328;50.860;10.562;2022-11-20T17:41:54;95562.44;;;1.75;63.24
28000;BME280;15328;50.860;10.562;2022-11-20T17:47:13;95558.13;;;1.89;62.27
28000;BME280;15328;50.860;10.562;2022-11-20T17:52:13;95553.25;;;1.85;62.96
28000;BME280;15328;50.860;10.562;2022-11-20T17:57:13;95534.47;;;1.82;63.03
28000;BME280;15328;50.860;10.562;2022-11-20T18:02:32;95522.47;;;1.58;63.94
28000;BME280;15328;50.860;10.562;2022-11-20T18:07:33;95513.75;;;1.51;64.61
28000;BME280;15328;50.860;10.562;2022-11-20T18:12:33;95498.63;;;1.53;66.22
28000;BME280;15328;50.860;10.562;2022-11-20T18:17:34;95484.28;;;1.49;65.59
28000;BME280;15328;50.860;10.562;2022-11-20T18:22:35;95475.47;;;1.57;66.23
28000;BME280;15328;50.860;10.562;2022-11-20T18:27:36;95476.22;;;1.50;66.42
28000;BME280;15328;50.860;10.562;2022-11-20T18:32:37;95477.41;;;1.48;67.15
28000;BME280;15328;50.860;10.562;2022-11-20T18:37:50;95464.75;;;1.51;67.84
28000;BME280;15328;50.860;10.562;2022-11-20T18:42:53;95463.31;;;1.49;69.06
28000;BME280;15328;50.860;10.562;2022-11-20T18:48:15;95456.38;;;1.63;69.59
28000;BME280;15328;50.860;10.562;2022-11-20T18:53:22;95447.84;;;1.54;69.20
28000;BME280;15328;50.860;10.562;2022-11-20T18:58:26;95444.28;;;1.62;69.78
28000;BME280;15328;50.860;10.562;2022-11-20T19:03:30;95437.13;;;1.70;69.56
28000;BME280;15328;50.860;10.562;2022-11-20T19:08:33;95434.25;;;1.65;70.11
28000;BME280;15328;50.860;10.562;2022-11-20T19:13:34;95434.75;;;1.75;70.67
28000;BME280;15328;50.860;10.562;2022-11-20T19:18:34;95420.50;;;1.84;69.59
28000;BME280;15328;50.860;10.562;2022-11-20T19:23:35;95409.00;;;1.85;69.46
28000;BME280;15328;50.860;10.562;2022-11-20T19:28:36;95406.16;;;1.80;70.19
28000;BME280;15328;50.860;10.562;2022-11-20T19:33:36;95400.72;;;1.82;69.29
28000;BME280;15328;50.860;10.562;2022-11-20T19:38:38;95399.78;;;1.68;70.40
28000;BME280;15328;50.860;10.562;2022-11-20T19:43:39;95398.22;;;1.74;69.91
28000;BME280;15328;50.860;10.562;2022-11-20T19:48:40;95398.13;;;1.89;70.58
28000;BME280;15328;50.860;10.562;2022-11-20T19:53:41;95378.91;;;2.03;70.03
28000;BME280;15328;50.860;10.562;2022-11-20T19:58:42;95376.31;;;2.09;69.68
28000;BME280;15328;50.860;10.562;2022-11-20T20:03:43;95363.25;;;2.16;69.38
28000;BME280;15328;50.860;10.562;2022-11-20T20:08:44;95349.59;;;2.27;68.42
28000;BME280;15328;50.860;10.562;2022-11-20T20:13:45;95351.50;;;2.12;68.98
28000;BME280;15328;50.860;10.562;2022-11-20T20:18:46;95344.13;;;2.22;68.49
28000;BME280;15328;50.860;10.562;2022-11-20T20:23:50;95327.38;;;2.23;69.11
28000;BME280;15328;50.860;10.562;2022-11-20T20:28:51;95316.19;;;2.14;69.32
28000;BME280;15328;50.860;10.562;2022-11-20T20:33:51;95306.59;;;2.28;68.61
28000;BME280;15328;50.860;10.562;2022-11-20T20:38:53;95302.81;;;2.37;69.29
28000;BME280;15328;50.860;10.562;2022-11-20T20:43:53;95292.78;;;2.47;68.05
28000;BME280;15328;50.860;10.562;2022-11-20T20:49:12;95274.78;;;2.44;68.53
28000;BME280;15328;50.860;10.562;2022-11-20T20:54:13;95280.28;;;2.56;68.37
28000;BME280;15328;50.860;10.562;2022-11-20T20:59:13;95257.28;;;2.58;68.20
28000;BME280;15328;50.860;10.562;2022-11-20T21:04:13;95248.38;;;2.59;67.96
28000;BME280;15328;50.860;10.562;2022-11-20T21:09:14;95236.50;;;2.70;68.67
28000;BME280;15328;50.860;10.562;2022-11-20T21:14:14;95225.16;;;2.63;68.91
28000;BME280;15328;50.860;10.562;2022-11-20T21:19:14;95225.16;;;2.50;68.92
28000;BME280;15328;50.860;10.562;2022-11-20T21:24:15;95204.38;;;2.61;68.82
28000;BME280;15328;50.860;10.562;2022-11-20T21:29:15;95185.59;;;2.71;69.66
28000;BME280;15328;50.860;10.562;2022-11-20T21:34:16;95186.38;;;2.65;69.02
28000;BME280;15328;50.860;10.562;2022-11-20T21:39:16;95174.66;;;2.61;70.03
28000;BME280;15328;50.860;10.562;2022-11-20T21:44:17;95155.50;;;2.67;70.36
28000;BME280;15328;50.860;10.562;2022-11-20T21:49:17;95155.09;;;2.70;71.08
28000;BME280;15328;50.860;10.562;2022-11-20T21:54:18;95157.75;;;2.83;70.45
28000;BME280;15328;50.860;10.562;2022-11-20T21:59:18;95137.91;;;2.67;70.70
28000;BME280;15328;50.860;10.562;2022-11-20T22:04:18;95121.19;;;2.75;70.79
28000;BME280;15328;50.860;10.562;2022-11-20T22:09:20;95110.69;;;2.75;71.56
28000;BME280;15328;50.860;10.562;2022-11-20T22:14:20;95114.91;;;2.83;70.67
28000;BME280;15328;50.860;10.562;2022-11-20T22:19:22;95099.97;;;2.83;70.80
28000;BME280;15328;50.860;10.562;2022-11-20T22:24:22;95089.44;;;2.70;71.80
28000;BME280;15328;50.860;10.562;2022-11-20T22:29:23;95087.44;;;2.78;71.58
28000;BME280;15328;50.860;10.562;2022-11-20T22:34:23;95077.53;;;2.81;71.36
28000;BME280;15328;50.860;10.562;2022-11-20T22:39:23;95071.88;;;2.77;71.18
28000;BME280;15328;50.860;10.562;2022-11-20T22:44:24;95072.06;;;2.62;72.89
28000;BME280;15328;50.860;10.562;2022-11-20T22:49:24;95055.94;;;2.78;72.10
28000;BME280;15328;50.860;10.562;2022-11-20T22:54:24;95062.38;;;2.69;71.80
28000;BME280;15328;50.860;10.562;2022-11-20T22:59:25;95061.59;;;2.75;72.16
28000;BME280;15328;50.860;10.562;2022-11-20T23:04:25;95065.19;;;2.68;72.60
28000;BME280;15328;50.860;10.562;2022-11-20T23:09:25;95055.13;;;2.78;72.50
28000;BME280;15328;50.860;10.562;2022-11-20T23:14:26;95044.41;;;2.79;72.21
28000;BME280;15328;50.860;10.562;2022-11-20T23:19:26;95037.53;;;2.78;72.75
28000;BME280;15328;50.860;10.562;2022-11-20T23:24:26;95038.31;;;2.72;72.67
28000;BME280;15328;50.860;10.562;2022-11-20T23:29:27;95052.28;;;2.86;71.76
28000;BME280;15328;50.860;10.562;2022-11-20T23:34:27;95052.47;;;2.91;72.10
28000;BME280;15328;50.860;10.562;2022-11-20T23:40:03;95038.50;;;2.97;72.28
28000;BME280;15328;50.860;10.562;2022-11-20T23:45:03;95047.00;;;2.99;72.66
28000;BME280;15328;50.860;10.562;2022-11-20T23:50:04;95042.38;;;3.01;72.40
28000;BME280;15328;50.860;10.562;2022-11-20T23:55:04;95038.72;;;2.96;73.32
